CheckWX is a tool to help pilots better visualize weather data.  It is not intended as a substitute for an official pre-flight weather briefing.

03:40:52 UTC

82V METAR
Pine Bluffs Municipal Airport
Pine Bluffs, Wyoming, USA
Current

6 mins ago

K82V 190335Z AUTO 20005KT 10SM CLR 12/12 A3003 RMK AO2 LTG DSNT NW
Observed
Jun-19 @ 03:35 UTC
Wind
  • 200° at 5 KTS
Visibility
10 SM
Flight Rules
VFR
Cloud Levels
  • Clear skies
Temperature
12°C / 54°F
Dewpoint
12°C / 54°F
Humidity
100%
Altimeter
30.03" Hg
Pressure
1016.92 hPa
Previous

26 mins ago

K82V 190315Z AUTO 20003KT 10SM CLR 12/12 A3002 RMK AO2
Observed
Jun-19 @ 03:15 UTC
Wind
  • 200° at 3 KTS
Visibility
10 SM
Flight Rules
VFR
Cloud Levels
  • Clear skies
Temperature
12°C / 54°F
Dewpoint
12°C / 54°F
Humidity
100%
Altimeter
30.02" Hg
Pressure
1016.62 hPa
Previous

46 mins ago

K82V 190255Z AUTO 20004KT 10SM SCT080 13/13 A3003 RMK AO2
Observed
Jun-19 @ 02:55 UTC
Wind
  • 200° at 4 KTS
Visibility
10 SM
Flight Rules
VFR
Cloud Levels
  • Scattered at 8,000' AGL
Temperature
13°C / 55°F
Dewpoint
13°C / 55°F
Humidity
100%
Altimeter
30.03" Hg
Pressure
1016.92 hPa